x

North Hecate Strait (46183) Wave Buoy

3:00pm - Mon 31st Aug 2015 All times are PDT. -7 hours from GMT.

  • Sig Wave height 3.9ft
  • Peak Period 8s
  • Wind
    16mph, 18mph gusts
  • Sea Temp 56°f
  • Air Temp 55°f
  • Sea Pressure 1002.5mb
  • North Hecate Strait
  • North Hecate Strait

More Historic Weather Station data

Upgrade to MSW Pro to gain access to the past 30 days of data for over 8000 Wavebouys and Weather Stations around the globe.

Join Pro

Comparision Forecast

View Surf forecast
   
Mon 08/31 3:00pm 4ft 8s 16 18 mph 1002.5mb 56f 55f
2:00pm 4ft 8s 18 20 mph 1002.9mb 56f 55f
1:00pm 4ft 8s 16 18 mph 1003.4mb 56f 55f
12:00pm 3.5ft 8s 18 20 mph 1003.4mb 55f 55f
11:00am 3.5ft 9s 13 16 mph 1003.4mb 55f 55f
10:00am 3.5ft 8s 13 16 mph 1003.3mb 55f 55f
9:00am 3.5ft 7s 13 16 mph 1003mb 55f 55f
8:00am 4ft 8s 13 16 mph 1002.6mb 55f 54f
7:00am 4.5ft 8s 16 18 mph 1002.1mb 56f 54f
6:00am 4.5ft 8s 20 25 mph 1001.5mb 56f 54f
5:00am 5ft 8s 18 22 mph 1001.1mb 56f 54f
4:00am 5.5ft 8s 20 22 mph 1000.3mb 56f 55f
3:00am 5.5ft 9s 22 29 mph 999.9mb 56f 55f
2:00am 6ft 8s 20 22 mph 999.6mb 56f 55f
1:00am 6.5ft 8s 16 18 mph 999.5mb 56f 56f
12:00am 6ft 9s 11 13 mph 999.2mb 56f 56f
Sun 08/30 11:00pm 6ft 8s 13 18 mph 998.6mb 55f 56f
10:00pm 6ft 10s 13 18 mph 998mb 55f 56f
9:00pm 6ft 7s 16 18 mph 997mb 55f 56f
8:00pm 6ft 8s 16 20 mph 995.8mb 55f 57f
7:00pm 6.5ft 8s 16 18 mph 994.9mb 56f 58f
6:00pm 7ft 8s 13 16 mph 993.7mb 56f 58f
5:00pm 8ft 8s 13 18 mph 992.7mb 56f 57f
4:00pm 9ft 8s 16 18 mph 991.5mb 56f 56f
3:00pm 10ft 8s 18 22 mph 990.8mb 56f 57f
2:00pm 11ft 7s 25 34 mph 990.2mb 56f 56f
1:00pm 11ft 6s 38 47 mph 989.6mb 56f 56f
12:00pm 8.5ft 6s 38 49 mph 989.8mb 57f 56f
11:00am 7ft 6s 36 47 mph 991.3mb 56f 57f
10:00am 6ft 5s 31 40 mph 993.1mb 56f 57f
9:00am 4.5ft 5s 22 29 mph 994.7mb 56f 57f
8:00am 3.5ft 5s 22 27 mph 995.3mb 56f 57f
7:00am 3ft 7s 18 22 mph 995.8mb 56f 57f
6:00am 2.5ft 5s 16 20 mph 995.8mb 56f 57f
5:00am 2.5ft 5s 16 18 mph 995.8mb 57f 57f
4:00am 3ft 7s 16 18 mph 995.7mb 57f 57f
3:00am 3ft 7s 13 18 mph 995.5mb 57f 57f
2:00am 3ft 7s 11 13 mph 994.9mb 57f 57f
1:00am 3ft 7s 9 11 mph 994.7mb 57f 57f
12:00am 3ft 7s 9 11 mph 994.5mb 57f 57f
Sat 08/29 11:00pm 3ft 7s 11 16 mph 994.2mb 57f 57f
10:00pm 3ft 7s 9 11 mph 993.8mb 56f 57f
9:00pm 3.5ft 8s 7 9 mph 993.4mb 57f 56f
8:00pm 3ft 8s 7
mph
992.9mb 57f 57f
7:00pm 3.5ft 8s 9 11 mph 992.4mb 57f 56f
6:00pm 3.5ft 8s 7 9 mph 991.7mb 57f 56f
5:00pm 4ft 8s 4
mph
991.2mb 57f 56f
4:00pm 4.5ft 8s 4
mph
990.2mb 57f 56f
3:00pm 4.5ft 8s 7 9 mph 989.6mb 57f 56f
2:00pm 5.5ft 7s 7
mph
989.4mb 57f 56f
1:00pm 6ft 8s 9 11 mph 989.6mb 57f 56f
12:00pm 6ft 8s 9 11 mph 990mb 57f 57f
11:00am 7ft 8s 13 16 mph 990.2mb 57f 57f
10:00am 7ft 8s 11 13 mph 991mb 56f 56f
9:00am 8ft 8s 18 22 mph 991.7mb 56f 56f
8:00am 7.5ft 8s 22 27 mph 992.1mb 56f 57f
7:00am 6.5ft 8s 22 29 mph 992.7mb 56f 57f
6:00am 6ft 8s 22 29 mph 993.3mb 56f 57f
5:00am 6ft 8s 22 29 mph 993.8mb 56f 57f
4:00am 6ft 8s 20 25 mph 994.7mb 57f 57f
3:00am 7ft 8s 22 27 mph 995.5mb 58f 57f
2:00am 8ft 7s 25 29 mph 995.8mb 58f 57f
1:00am 8.5ft 8s 27 31 mph 996.5mb 58f 57f
12:00am 9ft 7s 27 29 mph 996.9mb 58f 57f
Fri 08/28 11:00pm 9ft 7s 27 31 mph 997.1mb 57f 58f
10:00pm 9ft 7s 29 36 mph 997.1mb 57f 58f
9:00pm 8.5ft 7s 31 38 mph 997.5mb 57f 59f
8:00pm 9ft 8s 27 34 mph 998.1mb 57f 58f
7:00pm 9ft 7s 29 34 mph 998.1mb 57f 59f
6:00pm 8.5ft 8s 27 34 mph 998.5mb 58f 59f
5:00pm 8ft 7s 27 34 mph 998.6mb 58f 59f
4:00pm 7ft 7s 25 31 mph 998.8mb 57f 59f
3:00pm 7.5ft 6s 27 31 mph 998.9mb 57f 58f
2:00pm 8ft 7s 25 29 mph 998.6mb 57f 57f
1:00pm 7.5ft 6s 27 31 mph 998.5mb 57f 58f
12:00pm 7ft 6s 25 34 mph 998.9mb 58f 58f
11:00am 6ft 6s 29 36 mph 998.5mb 58f 59f
10:00am 6ft 5s 27 34 mph 998.7mb 58f 59f
9:00am 6ft 5s 27 31 mph 999.3mb 58f 59f
8:00am 6ft 5s 29 34 mph 999.4mb 59f 59f
7:00am 6ft 5s 27 31 mph 1000.1mb 59f 59f
6:00am 5ft 6s 25 31 mph 1001.1mb 59f 59f
5:00am 4.5ft 5s 22 27 mph 1002.2mb 58f 59f
4:00am 3.5ft 5s 20 25 mph 1003mb 58f 58f
3:00am 4ft 5s 18 22 mph 1004mb 58f 59f
2:00am 4.5ft 5s 18 22 mph 1005.1mb 58f 59f
1:00am 3.5ft 4s 22 25 mph 1005.9mb 57f 58f